sensor_id;sensor_type;location;lat;lon;timestamp;pressure;altitude;pressure_sealevel;temperature;humidity
33953;BME280;20231;42.710;23.280;2023-03-12T00:02:12;94090.47;;;6.33;51.24
33953;BME280;20231;42.710;23.280;2023-03-12T00:04:37;94093.75;;;6.05;52.37
33953;BME280;20231;42.710;23.280;2023-03-12T00:07:03;94106.13;;;6.00;52.15
33953;BME280;20231;42.710;23.280;2023-03-12T00:09:34;94097.44;;;6.09;52.07
33953;BME280;20231;42.710;23.280;2023-03-12T00:11:59;94106.28;;;6.13;52.39
33953;BME280;20231;42.710;23.280;2023-03-12T00:14:25;94107.25;;;5.79;52.31
33953;BME280;20231;42.710;23.280;2023-03-12T00:16:51;94124.81;;;5.78;52.44
33953;BME280;20231;42.710;23.280;2023-03-12T00:19:16;94113.84;;;5.66;52.84
33953;BME280;20231;42.710;23.280;2023-03-12T00:21:41;94104.88;;;5.87;52.53
33953;BME280;20231;42.710;23.280;2023-03-12T00:24:07;94151.31;;;6.20;52.24
33953;BME280;20231;42.710;23.280;2023-03-12T00:26:32;94150.66;;;5.95;52.76
33953;BME280;20231;42.710;23.280;2023-03-12T00:28:58;94123.59;;;6.09;52.03
33953;BME280;20231;42.710;23.280;2023-03-12T00:31:26;94157.63;;;6.14;52.26
33953;BME280;20231;42.710;23.280;2023-03-12T00:33:52;94152.41;;;6.09;52.16
33953;BME280;20231;42.710;23.280;2023-03-12T00:36:19;94147.09;;;6.19;51.98
33953;BME280;20231;42.710;23.280;2023-03-12T00:38:45;94154.44;;;6.17;52.01
33953;BME280;20231;42.710;23.280;2023-03-12T00:41:11;94135.41;;;6.02;52.17
33953;BME280;20231;42.710;23.280;2023-03-12T00:43:36;94143.84;;;6.37;51.66
33953;BME280;20231;42.710;23.280;2023-03-12T00:46:02;94150.22;;;6.26;51.96
33953;BME280;20231;42.710;23.280;2023-03-12T00:48:28;94142.94;;;6.13;51.61
33953;BME280;20231;42.710;23.280;2023-03-12T00:50:53;94133.03;;;6.10;51.98
33953;BME280;20231;42.710;23.280;2023-03-12T00:53:19;94147.59;;;6.26;51.90
33953;BME280;20231;42.710;23.280;2023-03-12T00:55:44;94178.88;;;6.03;51.47
33953;BME280;20231;42.710;23.280;2023-03-12T00:58:09;94138.88;;;5.92;51.88
33953;BME280;20231;42.710;23.280;2023-03-12T01:00:35;94145.84;;;6.12;51.61
33953;BME280;20231;42.710;23.280;2023-03-12T01:03:00;94125.97;;;6.06;51.79
33953;BME280;20231;42.710;23.280;2023-03-12T01:05:26;94180.75;;;5.97;51.94
33953;BME280;20231;42.710;23.280;2023-03-12T01:07:51;94154.06;;;5.90;52.48
33953;BME280;20231;42.710;23.280;2023-03-12T01:10:18;94146.59;;;5.49;52.99
33953;BME280;20231;42.710;23.280;2023-03-12T01:12:44;94130.13;;;5.49;52.47
33953;BME280;20231;42.710;23.280;2023-03-12T01:15:13;94167.44;;;5.74;52.43
33953;BME280;20231;42.710;23.280;2023-03-12T01:17:39;94134.78;;;5.66;52.26
33953;BME280;20231;42.710;23.280;2023-03-12T01:20:05;94168.97;;;5.95;52.17
33953;BME280;20231;42.710;23.280;2023-03-12T01:22:30;94150.69;;;5.85;52.13
33953;BME280;20231;42.710;23.280;2023-03-12T01:24:56;94174.00;;;5.71;52.60
33953;BME280;20231;42.710;23.280;2023-03-12T01:27:21;94143.13;;;5.68;52.49
33953;BME280;20231;42.710;23.280;2023-03-12T01:29:47;94146.00;;;5.72;52.44
33953;BME280;20231;42.710;23.280;2023-03-12T01:32:12;94179.50;;;5.70;53.03
33953;BME280;20231;42.710;23.280;2023-03-12T01:34:38;94163.03;;;5.64;52.61
33953;BME280;20231;42.710;23.280;2023-03-12T01:37:03;94173.50;;;5.64;52.86
33953;BME280;20231;42.710;23.280;2023-03-12T01:39:28;94154.72;;;5.43;53.22
33953;BME280;20231;42.710;23.280;2023-03-12T01:41:54;94147.84;;;5.71;52.65
33953;BME280;20231;42.710;23.280;2023-03-12T01:44:19;94136.38;;;5.58;52.40
33953;BME280;20231;42.710;23.280;2023-03-12T01:46:45;94166.72;;;5.59;53.22
33953;BME280;20231;42.710;23.280;2023-03-12T01:49:21;94136.94;;;5.45;53.02
33953;BME280;20231;42.710;23.280;2023-03-12T01:51:53;94139.97;;;5.71;52.78
33953;BME280;20231;42.710;23.280;2023-03-12T01:56:55;94158.28;;;5.81;52.96
33953;BME280;20231;42.710;23.280;2023-03-12T01:59:34;94156.78;;;5.61;52.83
33953;BME280;20231;42.710;23.280;2023-03-12T02:02:02;94169.22;;;5.93;52.65
33953;BME280;20231;42.710;23.280;2023-03-12T02:04:29;94178.13;;;5.97;52.62
33953;BME280;20231;42.710;23.280;2023-03-12T02:07:02;94154.75;;;6.11;51.93
33953;BME280;20231;42.710;23.280;2023-03-12T02:09:29;94169.00;;;6.38;51.22
33953;BME280;20231;42.710;23.280;2023-03-12T02:11:55;94162.53;;;6.26;51.16
33953;BME280;20231;42.710;23.280;2023-03-12T02:14:20;94176.78;;;6.48;50.83
33953;BME280;20231;42.710;23.280;2023-03-12T02:16:45;94168.69;;;6.49;50.33
33953;BME280;20231;42.710;23.280;2023-03-12T02:19:19;94171.59;;;5.95;51.44
33953;BME280;20231;42.710;23.280;2023-03-12T02:21:47;94164.44;;;6.05;51.05
33953;BME280;20231;42.710;23.280;2023-03-12T02:24:42;94183.66;;;6.39;50.68
33953;BME280;20231;42.710;23.280;2023-03-12T02:27:06;94174.66;;;6.12;50.83
33953;BME280;20231;42.710;23.280;2023-03-12T02:29:35;94186.03;;;5.82;52.29
33953;BME280;20231;42.710;23.280;2023-03-12T02:32:02;94184.97;;;5.88;51.81
33953;BME280;20231;42.710;23.280;2023-03-12T02:34:28;94171.56;;;6.00;51.68
33953;BME280;20231;42.710;23.280;2023-03-12T02:36:54;94197.63;;;6.25;51.13
33953;BME280;20231;42.710;23.280;2023-03-12T02:39:20;94206.59;;;6.09;51.66
33953;BME280;20231;42.710;23.280;2023-03-12T02:41:51;94198.69;;;6.24;51.39
33953;BME280;20231;42.710;23.280;2023-03-12T02:44:21;94176.69;;;6.25;51.26
33953;BME280;20231;42.710;23.280;2023-03-12T02:46:49;94195.28;;;6.18;51.50
33953;BME280;20231;42.710;23.280;2023-03-12T02:49:17;94214.00;;;5.92;52.51
33953;BME280;20231;42.710;23.280;2023-03-12T02:51:44;94209.53;;;5.97;52.44
33953;BME280;20231;42.710;23.280;2023-03-12T02:54:10;94209.09;;;5.65;52.84
33953;BME280;20231;42.710;23.280;2023-03-12T02:56:36;94199.56;;;5.99;52.26
33953;BME280;20231;42.710;23.280;2023-03-12T02:59:03;94212.78;;;6.28;52.02
33953;BME280;20231;42.710;23.280;2023-03-12T03:01:28;94226.09;;;6.41;51.47
33953;BME280;20231;42.710;23.280;2023-03-12T03:03:54;94231.09;;;6.33;51.53
33953;BME280;20231;42.710;23.280;2023-03-12T03:06:20;94212.31;;;6.16;51.83
33953;BME280;20231;42.710;23.280;2023-03-12T03:08:46;94213.13;;;6.16;51.82
33953;BME280;20231;42.710;23.280;2023-03-12T03:11:11;94196.38;;;6.12;52.01
33953;BME280;20231;42.710;23.280;2023-03-12T03:13:37;94199.19;;;6.31;51.54
33953;BME280;20231;42.710;23.280;2023-03-12T03:16:02;94215.13;;;6.34;51.81
33953;BME280;20231;42.710;23.280;2023-03-12T03:18:29;94222.41;;;6.47;51.70
33953;BME280;20231;42.710;23.280;2023-03-12T03:21:04;94222.06;;;6.58;51.36
33953;BME280;20231;42.710;23.280;2023-03-12T03:23:30;94220.25;;;6.59;51.31
33953;BME280;20231;42.710;23.280;2023-03-12T03:25:56;94222.41;;;6.47;51.32
33953;BME280;20231;42.710;23.280;2023-03-12T03:28:23;94229.75;;;6.45;51.56
33953;BME280;20231;42.710;23.280;2023-03-12T03:30:52;94221.13;;;6.44;51.39
33953;BME280;20231;42.710;23.280;2023-03-12T03:33:18;94195.84;;;6.15;51.68
33953;BME280;20231;42.710;23.280;2023-03-12T03:35:44;94215.44;;;6.23;52.04
33953;BME280;20231;42.710;23.280;2023-03-12T03:38:10;94214.28;;;5.85;52.58
33953;BME280;20231;42.710;23.280;2023-03-12T03:40:35;94227.50;;;6.24;52.24
33953;BME280;20231;42.710;23.280;2023-03-12T03:43:01;94229.69;;;5.97;52.31
33953;BME280;20231;42.710;23.280;2023-03-12T03:45:26;94210.63;;;5.71;52.60
33953;BME280;20231;42.710;23.280;2023-03-12T03:47:51;94239.41;;;5.62;53.21
33953;BME280;20231;42.710;23.280;2023-03-12T03:50:17;94229.75;;;5.82;52.80
33953;BME280;20231;42.710;23.280;2023-03-12T03:52:43;94223.47;;;5.68;52.71
33953;BME280;20231;42.710;23.280;2023-03-12T03:55:08;94229.50;;;5.59;52.02
33953;BME280;20231;42.710;23.280;2023-03-12T03:57:34;94249.38;;;5.50;52.33
33953;BME280;20231;42.710;23.280;2023-03-12T03:59:59;94235.81;;;5.28;53.06
33953;BME280;20231;42.710;23.280;2023-03-12T04:02:26;94244.44;;;5.23;53.01
33953;BME280;20231;42.710;23.280;2023-03-12T04:04:55;94258.81;;;5.51;52.23
33953;BME280;20231;42.710;23.280;2023-03-12T04:07:21;94262.47;;;5.55;52.28
33953;BME280;20231;42.710;23.280;2023-03-12T04:09:47;94275.56;;;5.60;51.56
33953;BME280;20231;42.710;23.280;2023-03-12T04:12:12;94236.81;;;5.57;51.25
33953;BME280;20231;42.710;23.280;2023-03-12T04:14:39;94255.66;;;5.63;50.83
33953;BME280;20231;42.710;23.280;2023-03-12T04:17:05;94241.56;;;5.20;51.77
33953;BME280;20231;42.710;23.280;2023-03-12T04:19:31;94258.84;;;5.21;51.31
33953;BME280;20231;42.710;23.280;2023-03-12T04:21:56;94252.53;;;5.12;51.74
33953;BME280;20231;42.710;23.280;2023-03-12T04:24:21;94273.22;;;5.23;51.54
33953;BME280;20231;42.710;23.280;2023-03-12T04:26:47;94262.72;;;5.33;50.59
33953;BME280;20231;42.710;23.280;2023-03-12T04:29:14;94287.84;;;5.44;49.91
33953;BME280;20231;42.710;23.280;2023-03-12T04:31:39;94295.13;;;5.02;50.85
33953;BME280;20231;42.710;23.280;2023-03-12T04:34:05;94290.47;;;5.14;49.86
33953;BME280;20231;42.710;23.280;2023-03-12T04:36:30;94278.38;;;4.79;50.05
33953;BME280;20231;42.710;23.280;2023-03-12T04:38:56;94294.09;;;4.89;49.76
33953;BME280;20231;42.710;23.280;2023-03-12T04:41:21;94311.59;;;4.83;49.82
33953;BME280;20231;42.710;23.280;2023-03-12T04:43:47;94303.41;;;4.60;50.42
33953;BME280;20231;42.710;23.280;2023-03-12T04:46:12;94297.44;;;4.64;50.52
33953;BME280;20231;42.710;23.280;2023-03-12T04:48:38;94310.53;;;4.79;49.96
33953;BME280;20231;42.710;23.280;2023-03-12T04:51:03;94292.41;;;4.38;50.51
33953;BME280;20231;42.710;23.280;2023-03-12T04:53:32;94328.28;;;4.72;50.09
33953;BME280;20231;42.710;23.280;2023-03-12T04:55:57;94281.97;;;4.48;50.38
33953;BME280;20231;42.710;23.280;2023-03-12T04:58:25;94328.78;;;4.69;50.52
33953;BME280;20231;42.710;23.280;2023-03-12T05:00:50;94324.78;;;4.42;50.47
33953;BME280;20231;42.710;23.280;2023-03-12T05:03:16;94325.31;;;4.44;50.93
33953;BME280;20231;42.710;23.280;2023-03-12T05:05:42;94310.97;;;4.51;50.31
33953;BME280;20231;42.710;23.280;2023-03-12T05:08:07;94301.59;;;4.60;50.20
33953;BME280;20231;42.710;23.280;2023-03-12T05:10:33;94312.34;;;4.79;50.11
33953;BME280;20231;42.710;23.280;2023-03-12T05:12:58;94341.41;;;4.97;50.01
33953;BME280;20231;42.710;23.280;2023-03-12T05:15:24;94332.00;;;4.86;50.32
33953;BME280;20231;42.710;23.280;2023-03-12T05:17:50;94341.41;;;5.07;49.99
33953;BME280;20231;42.710;23.280;2023-03-12T05:20:15;94344.06;;;5.22;49.70
33953;BME280;20231;42.710;23.280;2023-03-12T05:22:42;94350.09;;;5.37;49.62
33953;BME280;20231;42.710;23.280;2023-03-12T05:25:08;94358.13;;;5.01;50.62
33953;BME280;20231;42.710;23.280;2023-03-12T05:27:34;94357.94;;;5.32;50.12
33953;BME280;20231;42.710;23.280;2023-03-12T05:29:59;94348.53;;;5.36;49.48
33953;BME280;20231;42.710;23.280;2023-03-12T05:32:25;94370.44;;;5.15;49.97
33953;BME280;20231;42.710;23.280;2023-03-12T05:34:50;94370.22;;;5.22;49.69
33953;BME280;20231;42.710;23.280;2023-03-12T05:37:16;94358.47;;;5.39;49.52
33953;BME280;20231;42.710;23.280;2023-03-12T05:39:41;94377.81;;;5.58;49.43
33953;BME280;20231;42.710;23.280;2023-03-12T05:42:12;94392.47;;;5.49;49.16
33953;BME280;20231;42.710;23.280;2023-03-12T05:44:37;94374.38;;;5.13;49.24
33953;BME280;20231;42.710;23.280;2023-03-12T05:47:03;94402.09;;;5.09;49.92
33953;BME280;20231;42.710;23.280;2023-03-12T05:49:29;94389.22;;;4.88;49.37
33953;BME280;20231;42.710;23.280;2023-03-12T05:51:55;94395.53;;;5.01;49.64
33953;BME280;20231;42.710;23.280;2023-03-12T05:54:21;94372.50;;;4.98;49.22
33953;BME280;20231;42.710;23.280;2023-03-12T05:56:48;94395.56;;;5.16;49.01
33953;BME280;20231;42.710;23.280;2023-03-12T05:59:13;94389.56;;;5.26;48.83
33953;BME280;20231;42.710;23.280;2023-03-12T06:01:39;94413.09;;;5.26;48.45
33953;BME280;20231;42.710;23.280;2023-03-12T06:04:05;94420.44;;;5.34;47.70
33953;BME280;20231;42.710;23.280;2023-03-12T06:06:32;94398.16;;;5.11;46.42
33953;BME280;20231;42.710;23.280;2023-03-12T06:09:00;94425.06;;;5.07;46.17
33953;BME280;20231;42.710;23.280;2023-03-12T06:11:26;94419.84;;;5.07;47.16
33953;BME280;20231;42.710;23.280;2023-03-12T06:13:52;94385.75;;;4.72;47.83
33953;BME280;20231;42.710;23.280;2023-03-12T06:16:23;94397.72;;;4.63;48.18
33953;BME280;20231;42.710;23.280;2023-03-12T06:18:59;94404.13;;;4.92;47.63
33953;BME280;20231;42.710;23.280;2023-03-12T06:21:27;94421.34;;;4.88;48.07
33953;BME280;20231;42.710;23.280;2023-03-12T06:23:53;94429.41;;;4.77;48.46
33953;BME280;20231;42.710;23.280;2023-03-12T06:26:21;94409.13;;;3.96;49.32
33953;BME280;20231;42.710;23.280;2023-03-12T06:28:47;94444.84;;;3.96;49.81
33953;BME280;20231;42.710;23.280;2023-03-12T06:31:14;94459.50;;;4.02;49.20
33953;BME280;20231;42.710;23.280;2023-03-12T06:33:39;94448.44;;;3.90;50.29
33953;BME280;20231;42.710;23.280;2023-03-12T06:36:06;94455.50;;;4.25;49.37
33953;BME280;20231;42.710;23.280;2023-03-12T06:38:33;94462.53;;;4.66;48.98
33953;BME280;20231;42.710;23.280;2023-03-12T06:41:02;94482.19;;;4.37;49.10
33953;BME280;20231;42.710;23.280;2023-03-12T06:43:30;94455.25;;;4.73;48.00
33953;BME280;20231;42.710;23.280;2023-03-12T06:45:58;94464.00;;;4.98;47.16
33953;BME280;20231;42.710;23.280;2023-03-12T06:48:24;94475.72;;;4.86;47.48
33953;BME280;20231;42.710;23.280;2023-03-12T06:50:50;94445.72;;;4.47;47.50
33953;BME280;20231;42.710;23.280;2023-03-12T06:53:16;94472.06;;;4.92;47.27
33953;BME280;20231;42.710;23.280;2023-03-12T06:55:43;94466.72;;;4.67;46.04
33953;BME280;20231;42.710;23.280;2023-03-12T06:58:09;94502.94;;;4.54;45.70
33953;BME280;20231;42.710;23.280;2023-03-12T07:00:35;94481.84;;;4.24;46.42
33953;BME280;20231;42.710;23.280;2023-03-12T07:03:03;94487.16;;;4.34;46.45
33953;BME280;20231;42.710;23.280;2023-03-12T07:05:29;94450.75;;;4.18;46.77
33953;BME280;20231;42.710;23.280;2023-03-12T07:07:55;94484.09;;;4.06;47.33
33953;BME280;20231;42.710;23.280;2023-03-12T07:10:21;94478.03;;;4.00;46.37
33953;BME280;20231;42.710;23.280;2023-03-12T07:12:47;94511.88;;;4.26;46.79
33953;BME280;20231;42.710;23.280;2023-03-12T07:15:15;94509.56;;;4.30;46.47
33953;BME280;20231;42.710;23.280;2023-03-12T07:17:40;94521.44;;;4.47;46.94
33953;BME280;20231;42.710;23.280;2023-03-12T07:20:07;94501.25;;;4.33;47.65
33953;BME280;20231;42.710;23.280;2023-03-12T07:22:32;94509.41;;;4.10;47.24
33953;BME280;20231;42.710;23.280;2023-03-12T07:24:58;94521.34;;;4.01;47.71
33953;BME280;20231;42.710;23.280;2023-03-12T07:27:23;94508.69;;;4.51;47.37
33953;BME280;20231;42.710;23.280;2023-03-12T07:29:49;94536.91;;;4.54;47.41
33953;BME280;20231;42.710;23.280;2023-03-12T07:32:17;94512.38;;;4.60;46.90
33953;BME280;20231;42.710;23.280;2023-03-12T07:34:43;94515.09;;;4.38;47.41
33953;BME280;20231;42.710;23.280;2023-03-12T07:37:08;94544.28;;;4.67;47.85
33953;BME280;20231;42.710;23.280;2023-03-12T07:39:33;94508.41;;;4.93;46.25
33953;BME280;20231;42.710;23.280;2023-03-12T07:41:59;94509.28;;;4.63;46.18
33953;BME280;20231;42.710;23.280;2023-03-12T07:44:24;94556.00;;;4.95;45.54
33953;BME280;20231;42.710;23.280;2023-03-12T07:46:51;94508.44;;;4.57;46.49
33953;BME280;20231;42.710;23.280;2023-03-12T07:49:17;94548.88;;;4.86;47.09
33953;BME280;20231;42.710;23.280;2023-03-12T07:51:42;94546.28;;;4.91;46.35
33953;BME280;20231;42.710;23.280;2023-03-12T07:54:08;94532.00;;;5.08;45.83
33953;BME280;20231;42.710;23.280;2023-03-12T07:56:33;94549.88;;;4.80;46.34
33953;BME280;20231;42.710;23.280;2023-03-12T07:58:59;94532.22;;;4.97;46.19
33953;BME280;20231;42.710;23.280;2023-03-12T08:01:24;94577.78;;;5.16;44.76
33953;BME280;20231;42.710;23.280;2023-03-12T08:03:56;94543.00;;;4.69;46.37
33953;BME280;20231;42.710;23.280;2023-03-12T08:06:21;94551.97;;;4.78;45.41
33953;BME280;20231;42.710;23.280;2023-03-12T08:08:47;94534.53;;;4.52;45.45
33953;BME280;20231;42.710;23.280;2023-03-12T08:11:12;94522.44;;;4.36;45.36
33953;BME280;20231;42.710;23.280;2023-03-12T08:13:37;94537.78;;;4.69;45.81
33953;BME280;20231;42.710;23.280;2023-03-12T08:16:03;94600.63;;;4.53;45.54
33953;BME280;20231;42.710;23.280;2023-03-12T08:18:29;94570.00;;;4.85;45.61
33953;BME280;20231;42.710;23.280;2023-03-12T08:20:54;94549.34;;;4.78;45.38
33953;BME280;20231;42.710;23.280;2023-03-12T08:23:20;94577.63;;;4.50;46.00
33953;BME280;20231;42.710;23.280;2023-03-12T08:25:48;94571.88;;;4.89;44.91
33953;BME280;20231;42.710;23.280;2023-03-12T08:28:14;94566.72;;;4.99;44.28
33953;BME280;20231;42.710;23.280;2023-03-12T08:30:47;94566.59;;;4.79;43.72
33953;BME280;20231;42.710;23.280;2023-03-12T08:33:13;94599.50;;;5.16;43.70
33953;BME280;20231;42.710;23.280;2023-03-12T08:35:38;94534.09;;;5.11;43.63
33953;BME280;20231;42.710;23.280;2023-03-12T08:38:04;94569.25;;;4.89;44.12
33953;BME280;20231;42.710;23.280;2023-03-12T08:40:29;94607.31;;;5.11;43.27
33953;BME280;20231;42.710;23.280;2023-03-12T08:42:55;94588.75;;;5.18;43.06
33953;BME280;20231;42.710;23.280;2023-03-12T08:45:20;94590.00;;;5.57;42.43
33953;BME280;20231;42.710;23.280;2023-03-12T08:47:45;94618.31;;;5.13;43.54
33953;BME280;20231;42.710;23.280;2023-03-12T08:50:12;94591.91;;;5.15;44.10
33953;BME280;20231;42.710;23.280;2023-03-12T08:52:38;94584.75;;;5.47;43.72
33953;BME280;20231;42.710;23.280;2023-03-12T08:55:04;94604.94;;;5.61;43.70
33953;BME280;20231;42.710;23.280;2023-03-12T08:57:30;94597.84;;;5.57;43.64
33953;BME280;20231;42.710;23.280;2023-03-12T08:59:56;94613.59;;;5.15;44.44
33953;BME280;20231;42.710;23.280;2023-03-12T09:02:22;94589.16;;;5.46;44.66
33953;BME280;20231;42.710;23.280;2023-03-12T09:04:48;94577.06;;;5.30;44.19
33953;BME280;20231;42.710;23.280;2023-03-12T09:07:14;94578.66;;;5.31;43.90
33953;BME280;20231;42.710;23.280;2023-03-12T09:09:42;94582.03;;;5.88;43.13
33953;BME280;20231;42.710;23.280;2023-03-12T09:12:08;94587.50;;;5.81;42.85
33953;BME280;20231;42.710;23.280;2023-03-12T09:14:33;94589.41;;;6.01;42.94
33953;BME280;20231;42.710;23.280;2023-03-12T09:16:59;94588.28;;;5.77;43.24
33953;BME280;20231;42.710;23.280;2023-03-12T09:19:26;94577.16;;;5.50;43.37
33953;BME280;20231;42.710;23.280;2023-03-12T09:21:51;94566.72;;;5.60;44.10
33953;BME280;20231;42.710;23.280;2023-03-12T09:24:20;94570.16;;;5.61;43.46
33953;BME280;20231;42.710;23.280;2023-03-12T09:26:45;94591.09;;;5.65;44.62
33953;BME280;20231;42.710;23.280;2023-03-12T09:29:11;94573.28;;;5.63;43.63
33953;BME280;20231;42.710;23.280;2023-03-12T09:31:36;94589.38;;;5.91;43.14
33953;BME280;20231;42.710;23.280;2023-03-12T09:34:02;94570.28;;;5.29;43.90
33953;BME280;20231;42.710;23.280;2023-03-12T09:36:28;94573.47;;;5.46;44.53
33953;BME280;20231;42.710;23.280;2023-03-12T09:38:54;94568.88;;;5.68;44.54
33953;BME280;20231;42.710;23.280;2023-03-12T09:41:30;94603.19;;;5.76;44.64
33953;BME280;20231;42.710;23.280;2023-03-12T10:07:57;94518.41;;;5.92;43.03
33953;BME280;20231;42.710;23.280;2023-03-12T10:16:19;94589.97;;;6.28;42.06
33953;BME280;20231;42.710;23.280;2023-03-12T10:22:00;94581.63;;;6.50;42.83
33953;BME280;20231;42.710;23.280;2023-03-12T10:27:46;94596.28;;;6.86;42.60
33953;BME280;20231;42.710;23.280;2023-03-12T10:30:17;94571.88;;;7.01;41.48
33953;BME280;20231;42.710;23.280;2023-03-12T10:33:05;94583.69;;;6.53;41.82
33953;BME280;20231;42.710;23.280;2023-03-12T10:35:35;94580.28;;;6.48;41.82
33953;BME280;20231;42.710;23.280;2023-03-12T10:38:04;94583.94;;;6.97;48.56
33953;BME280;20231;42.710;23.280;2023-03-12T10:40:36;94594.22;;;8.29;71.55
33953;BME280;20231;42.710;23.280;2023-03-12T10:43:04;94601.81;;;8.69;52.36
33953;BME280;20231;42.710;23.280;2023-03-12T10:48:05;94586.44;;;8.14;40.73
33953;BME280;20231;42.710;23.280;2023-03-12T10:50:36;94591.81;;;7.84;41.58
33953;BME280;20231;42.710;23.280;2023-03-12T10:53:23;94597.09;;;7.79;42.41
33953;BME280;20231;42.710;23.280;2023-03-12T10:56:15;94599.00;;;7.59;41.93
33953;BME280;20231;42.710;23.280;2023-03-12T10:58:43;94608.03;;;7.96;44.61
33953;BME280;20231;42.710;23.280;2023-03-12T11:01:23;94575.66;;;7.53;40.93
33953;BME280;20231;42.710;23.280;2023-03-12T11:03:51;94570.09;;;7.69;40.15
33953;BME280;20231;42.710;23.280;2023-03-12T11:06:23;94580.66;;;8.07;44.43
33953;BME280;20231;42.710;23.280;2023-03-12T11:09:24;94576.47;;;7.53;40.46
33953;BME280;20231;42.710;23.280;2023-03-12T11:11:50;94570.78;;;7.21;41.21
33953;BME280;20231;42.710;23.280;2023-03-12T11:14:21;94576.50;;;7.38;40.47
33953;BME280;20231;42.710;23.280;2023-03-12T11:16:47;94551.91;;;7.19;39.42
33953;BME280;20231;42.710;23.280;2023-03-12T11:19:25;94527.75;;;7.27;39.41
33953;BME280;20231;42.710;23.280;2023-03-12T11:21:59;94549.44;;;7.48;40.15
33953;BME280;20231;42.710;23.280;2023-03-12T11:24:25;94542.38;;;7.43;39.03
33953;BME280;20231;42.710;23.280;2023-03-12T11:26:53;94557.13;;;7.92;41.92
33953;BME280;20231;42.710;23.280;2023-03-12T11:29:32;94572.41;;;8.29;41.16
33953;BME280;20231;42.710;23.280;2023-03-12T11:32:30;94553.88;;;8.49;39.45
33953;BME280;20231;42.710;23.280;2023-03-12T11:34:56;94560.13;;;8.57;39.57
33953;BME280;20231;42.710;23.280;2023-03-12T11:37:43;94565.91;;;8.54;38.80
33953;BME280;20231;42.710;23.280;2023-03-12T11:43:33;94566.38;;;8.95;38.28
33953;BME280;20231;42.710;23.280;2023-03-12T11:46:20;94561.56;;;9.02;38.44
33953;BME280;20231;42.710;23.280;2023-03-12T12:00:17;94545.84;;;7.87;39.22
33953;BME280;20231;42.710;23.280;2023-03-12T12:14:50;94578.63;;;8.43;38.80
33953;BME280;20231;42.710;23.280;2023-03-12T12:23:16;94551.38;;;8.67;38.72
33953;BME280;20231;42.710;23.280;2023-03-12T12:31:11;94556.63;;;9.23;37.57
33953;BME280;20231;42.710;23.280;2023-03-12T12:36:23;94547.41;;;8.98;37.50
33953;BME280;20231;42.710;23.280;2023-03-12T12:39:17;94566.53;;;9.08;37.51
33953;BME280;20231;42.710;23.280;2023-03-12T12:41:48;94557.75;;;9.18;39.00
33953;BME280;20231;42.710;23.280;2023-03-12T12:44:26;94553.31;;;9.36;38.12
33953;BME280;20231;42.710;23.280;2023-03-12T12:46:59;94561.28;;;9.55;38.43
33953;BME280;20231;42.710;23.280;2023-03-12T12:49:53;94565.41;;;9.61;37.47
33953;BME280;20231;42.710;23.280;2023-03-12T12:52:24;94556.91;;;9.69;36.30
33953;BME280;20231;42.710;23.280;2023-03-12T12:55:10;94555.88;;;9.18;36.91
33953;BME280;20231;42.710;23.280;2023-03-12T12:58:38;94557.94;;;9.21;37.25
33953;BME280;20231;42.710;23.280;2023-03-12T13:00:55;94543.94;;;9.25;37.32
33953;BME280;20231;42.710;23.280;2023-03-12T13:03:23;94551.31;;;9.28;36.93
33953;BME280;20231;42.710;23.280;2023-03-12T13:06:03;94496.63;;;8.97;37.04
33953;BME280;20231;42.710;23.280;2023-03-12T13:11:28;94556.88;;;9.22;37.60
33953;BME280;20231;42.710;23.280;2023-03-12T13:16:42;94526.50;;;9.99;62.74
33953;BME280;20231;42.710;23.280;2023-03-12T13:22:00;94565.06;;;10.64;44.50
33953;BME280;20231;42.710;23.280;2023-03-12T13:24:56;94554.31;;;10.61;40.98
33953;BME280;20231;42.710;23.280;2023-03-12T13:27:35;94540.22;;;10.52;37.99
33953;BME280;20231;42.710;23.280;2023-03-12T13:35:30;94552.22;;;10.44;40.64
33953;BME280;20231;42.710;23.280;2023-03-12T13:38:02;94568.69;;;10.36;36.31
33953;BME280;20231;42.710;23.280;2023-03-12T13:43:11;94578.06;;;10.05;38.63
33953;BME280;20231;42.710;23.280;2023-03-12T13:48:19;94573.22;;;10.12;36.51
33953;BME280;20231;42.710;23.280;2023-03-12T13:50:57;94573.78;;;10.09;38.75
33953;BME280;20231;42.710;23.280;2023-03-12T13:53:34;94576.41;;;10.09;38.15
33953;BME280;20231;42.710;23.280;2023-03-12T13:56:04;94554.63;;;10.04;39.16
33953;BME280;20231;42.710;23.280;2023-03-12T13:58:40;94561.88;;;10.12;38.41
33953;BME280;20231;42.710;23.280;2023-03-12T14:01:14;94569.53;;;10.13;37.23
33953;BME280;20231;42.710;23.280;2023-03-12T14:03:44;94559.47;;;10.15;40.12
33953;BME280;20231;42.710;23.280;2023-03-12T14:06:17;94558.34;;;10.21;37.83
33953;BME280;20231;42.710;23.280;2023-03-12T14:17:02;94574.81;;;10.50;37.06
33953;BME280;20231;42.710;23.280;2023-03-12T14:19:32;94575.66;;;10.46;35.18
33953;BME280;20231;42.710;23.280;2023-03-12T14:22:05;94577.34;;;10.37;35.24
33953;BME280;20231;42.710;23.280;2023-03-12T14:24:34;94584.91;;;10.62;35.73
33953;BME280;20231;42.710;23.280;2023-03-12T14:27:04;94590.25;;;10.75;35.83
33953;BME280;20231;42.710;23.280;2023-03-12T14:29:36;94605.16;;;10.66;35.93
33953;BME280;20231;42.710;23.280;2023-03-12T14:32:11;94595.25;;;10.58;35.31
33953;BME280;20231;42.710;23.280;2023-03-12T14:34:45;94583.22;;;10.34;34.22
33953;BME280;20231;42.710;23.280;2023-03-12T14:37:31;94595.38;;;10.66;36.91
33953;BME280;20231;42.710;23.280;2023-03-12T14:40:02;94598.28;;;10.83;36.09
33953;BME280;20231;42.710;23.280;2023-03-12T14:42:32;94605.50;;;11.10;34.71
33953;BME280;20231;42.710;23.280;2023-03-12T14:45:12;94606.75;;;10.99;34.29
33953;BME280;20231;42.710;23.280;2023-03-12T14:47:43;94600.81;;;11.07;33.85
33953;BME280;20231;42.710;23.280;2023-03-12T14:50:20;94591.28;;;10.92;33.66
33953;BME280;20231;42.710;23.280;2023-03-12T14:52:46;94610.06;;;11.04;33.49
33953;BME280;20231;42.710;23.280;2023-03-12T14:55:14;94591.22;;;10.97;33.84
33953;BME280;20231;42.710;23.280;2023-03-12T14:57:42;94599.28;;;11.19;34.33